Airfield :
LOGIN :

Register | Disclaimer

   EN    FR    IT 

 










Legend :    VFR   Marginal VFR   IFR   Intensive IFR   Very Intensive IFR
Visi :
Ceiling :
>= 8 km
>= 3000ft
5 to 8 km
1000 to 3000 ft
1500m to 5 km
500 to 1000 ft
800 to 1500m
200 to 500 ft
< 800m
< 200 ft
Symbols :   Thunderstorms  Fog  Heavy snow  Heavy precipitations  Wind > 20 kt
SIGMETs :     Misc.  Thunderstorms  Icing  Turbulence  Mountain Waves  Volcanic Ashes






- Airport Elevation : 328 ft
- IATA code : PGX


LFBX - Périgueux Bassillac

CURRENT METAR :
  • 181330Z AUTO VRB07KT CAVOK 14/01 Q1021

EXPIRED METARs :
  • 181300Z AUTO 35010KT 310V040 CAVOK 13/M01 Q1021
  • 181230Z AUTO 35010KT 310V050 CAVOK 14/02 Q1021
  • 181200Z AUTO 35007G17KT 240V040 CAVOK 14/03 Q1021
  • 181130Z AUTO 33009KT 290V020 9999 //////TCU 12/02 Q1021
  • 181100Z AUTO 32006KT 270V030 9999 FEW040/// BKN056/// BKN068/// //////CB 12/05 Q1021
  • 181030Z AUTO 28010KT 250V310 9999 SCT036/// SCT043/// BKN050/// //////TCU 12/05 Q1021
  • 181000Z AUTO 34007KT 300V060 9999 SCT028/// BKN036/// BKN048/// //////TCU 11/05 Q1021
  • 180930Z AUTO 33006KT 280V040 9999 FEW031 SCT038 11/06 Q1021
  • 180900Z AUTO 32007KT 280V010 9999 SCT018 BKN034 BKN054 09/06 Q1020

TAF N/A



MET'MAP, your aeronautical weather chart ! - Copyright ORBIFLY December 2007 - Disclaimer

ORBIFLY MET'MAP TEAM :

Programming & Development : Alexandra Zaïnal
Original concept : Baudouin d'Aumeries
Technical & hardware support : Manuel Goepfert
Assistance : Marc-Olivier Méhu




SOURCES & CREDITS :

   NOAA